Dades meteomassalio
Diari Summary for Juliol 22, 2017 Units:  Metric    English   Both
« Previous Day
Next Day »
Diari Semanal Mensual Anual Personalitzat
  Maxima: Minima: Mijana:
Temperatura: 31.1 °C 19.1 °C 24.7 °C
Rosada: 22.6 °C 17.1 °C 19.4 °C
Humitat: 91 % 51 % 73 %
Velocitat del vent: 33.3 km/h 0.0 km/h 7.7 km/h
Racha vent: 33.3 km/h - -
Vent:- - SE
Pressio: 1014.1 hPa 1010.7 hPa -
Pluja: 1.3 mm    
Historical Graphs
 
 
Tabular Data for Juliol 22, 2017
Time Temperature Dew Point Pressure Wind Wind Speed Wind Gust Humidity Rainfall Rate (Hourly) solar Conditions
00:00 22.5 °C 18.4 °C 1010.7 hPa SSE 11.1 km/h 11.1 km/h 78 % 0.0 mm 0.0 W/m2 RA
00:05 22.5 °C 18.4 °C 1010.7 hPa SE 9.3 km/h 9.3 km/h 78 % 0.0 mm 0.0 W/m2 CLR
00:10 22.4 °C 18.4 °C 1010.7 hPa East 7.4 km/h 7.4 km/h 78 % 0.0 mm 0.0 W/m2 CLR
00:15 22.4 °C 18.4 °C 1010.7 hPa Calm     78 % 0.0 mm 0.0 W/m2 CLR
00:20 22.2 °C 18.4 °C 1010.7 hPa Calm     79 % 0.0 mm 0.0 W/m2 CLR
00:25 22.1 °C 18.3 °C 1010.7 hPa Calm     79 % 0.0 mm 0.0 W/m2 CLR
00:30 22.1 °C 18.4 °C 1011.1 hPa Calm     80 % 0.0 mm 0.0 W/m2 CLR
00:36 21.9 °C 18.3 °C 1011.1 hPa Calm     80 % 0.0 mm 0.0 W/m2 CLR
00:41 21.7 °C 18.3 °C 1011.1 hPa Calm     81 % 0.0 mm 0.0 W/m2 CLR
00:46 21.5 °C 18.3 °C 1011.1 hPa NE 1.9 km/h   82 % 0.0 mm 0.0 W/m2 CLR
00:51 21.4 °C 18.2 °C 1011.1 hPa Calm     82 % 0.0 mm 0.0 W/m2 CLR
00:56 21.3 °C 18.3 °C 1011.1 hPa Calm     83 % 0.0 mm 0.0 W/m2 CLR
01:01 21.3 °C 18.3 °C 1010.7 hPa Calm     83 % 0.0 mm 0.0 W/m2 CLR
01:06 21.2 °C 18.2 °C 1010.7 hPa Calm     83 % 0.0 mm 0.0 W/m2 CLR
01:11 21.1 °C 18.1 °C 1010.7 hPa Calm     83 % 0.0 mm 0.0 W/m2 CLR
01:16 21.0 °C 18.2 °C 1011.1 hPa Calm     84 % 0.0 mm 0.0 W/m2 CLR
01:21 21.1 °C 18.2 °C 1011.1 hPa Calm   0.2 km/h 84 % 0.0 mm 0.0 W/m2 CLR
01:26 21.1 °C 18.3 °C 1011.1 hPa Calm     84 % 0.0 mm 0.0 W/m2 CLR
01:31 21.3 °C 18.5 °C 1011.1 hPa ESE 7.4 km/h 7.4 km/h 84 % 0.0 mm 0.0 W/m2 CLR
01:36 21.4 °C 18.4 °C 1011.1 hPa Calm     83 % 0.0 mm 0.0 W/m2 CLR
01:41 21.4 °C 18.4 °C 1010.7 hPa Calm     83 % 0.0 mm 0.0 W/m2 CLR
01:46 21.4 °C 18.4 °C 1010.7 hPa Calm     83 % 0.0 mm 0.0 W/m2 CLR
01:51 21.3 °C 18.3 °C 1010.7 hPa Calm     83 % 0.0 mm 0.0 W/m2 CLR
01:57 21.1 °C 18.3 °C 1010.7 hPa Calm     84 % 0.0 mm 0.0 W/m2 CLR
02:02 21.1 °C 18.4 °C 1010.7 hPa Calm     85 % 0.0 mm 0.0 W/m2 CLR
02:07 21.1 °C 18.4 °C 1010.7 hPa Calm     85 % 0.0 mm 0.0 W/m2 CLR
02:12 20.9 °C 18.3 °C 1010.7 hPa Calm     85 % 0.0 mm 0.0 W/m2 CLR
02:17 20.8 °C 18.2 °C 1010.7 hPa Calm     85 % 0.0 mm 0.0 W/m2 CLR
02:22 20.7 °C 18.1 °C 1010.7 hPa Calm     85 % 0.0 mm 0.0 W/m2 CLR
02:27 20.6 °C 18.2 °C 1010.7 hPa Calm     86 % 0.0 mm 0.0 W/m2 CLR
02:32 20.5 °C 18.1 °C 1010.7 hPa Calm     86 % 0.0 mm 0.0 W/m2 CLR
02:37 20.4 °C 18.2 °C 1011.1 hPa Calm     87 % 0.0 mm 0.0 W/m2 CLR
02:42 20.4 °C 18.3 °C 1011.1 hPa Calm     88 % 0.0 mm 0.0 W/m2 CLR
02:47 20.4 °C 18.3 °C 1011.1 hPa Calm     88 % 0.0 mm 0.0 W/m2 CLR
02:53 20.3 °C 18.1 °C 1011.1 hPa Calm     87 % 0.0 mm 0.0 W/m2 CLR
02:58 20.2 °C 18.0 °C 1011.1 hPa Calm     87 % 0.0 mm 0.0 W/m2 CLR
03:03 20.1 °C 18.1 °C 1011.1 hPa Calm     88 % 0.0 mm 0.0 W/m2 CLR
03:08 20.1 °C 18.0 °C 1011.1 hPa Calm     88 % 0.0 mm 0.0 W/m2 CLR
03:13 20.0 °C 17.9 °C 1011.1 hPa Calm     88 % 0.0 mm 0.0 W/m2 CLR
03:18 19.9 °C 17.8 °C 1011.1 hPa Calm     88 % 0.0 mm 0.0 W/m2 CLR
03:23 19.8 °C 17.7 °C 1011.1 hPa Calm     88 % 0.0 mm 0.0 W/m2 CLR
03:28 19.7 °C 17.8 °C 1011.1 hPa Calm     89 % 0.0 mm 0.0 W/m2 CLR
03:33 19.6 °C 17.7 °C 1011.4 hPa Calm     89 % 0.0 mm 0.0 W/m2 CLR
03:38 19.5 °C 17.6 °C 1011.4 hPa Calm     89 % 0.0 mm 0.0 W/m2 CLR
03:43 19.5 °C 17.6 °C 1011.4 hPa Calm     89 % 0.0 mm 0.0 W/m2 CLR
03:48 19.4 °C 17.8 °C 1011.4 hPa Calm     90 % 0.0 mm 0.0 W/m2 CLR
03:53 19.4 °C 17.8 °C 1011.4 hPa Calm     90 % 0.0 mm 0.0 W/m2 CLR
03:58 19.3 °C 17.7 °C 1011.4 hPa Calm     90 % 0.0 mm 0.0 W/m2 CLR
04:03 19.3 °C 17.6 °C 1011.4 hPa Calm     90 % 0.0 mm 0.0 W/m2 CLR
04:08 19.1 °C 17.4 °C 1011.4 hPa Calm     90 % 0.0 mm 0.0 W/m2 CLR
04:13 19.1 °C 17.4 °C 1011.4 hPa West 5.6 km/h 5.6 km/h 90 % 0.0 mm 0.0 W/m2 CLR
04:18 19.1 °C 17.4 °C 1011.7 hPa West 3.2 km/h 3.2 km/h 90 % 0.0 mm 0.0 W/m2 CLR
04:23 19.1 °C 17.6 °C 1011.7 hPa WSW 12.9 km/h 12.9 km/h 91 % 0.0 mm 0.0 W/m2 CLR
04:28 19.2 °C 17.5 °C 1011.7 hPa WSW 13.0 km/h 13.0 km/h 90 % 0.0 mm 0.0 W/m2 CLR
04:33 19.2 °C 17.5 °C 1011.7 hPa SW 9.7 km/h 9.7 km/h 90 % 0.0 mm 0.0 W/m2 CLR
04:38 19.2 °C 17.5 °C 1011.7 hPa WSW 9.3 km/h 9.3 km/h 90 % 0.0 mm 0.0 W/m2 CLR
04:43 19.2 °C 17.6 °C 1011.7 hPa WSW 3.7 km/h   90 % 0.0 mm 0.0 W/m2 CLR
04:48 19.2 °C 17.3 °C 1011.7 hPa West 8.0 km/h 8.0 km/h 89 % 0.0 mm 0.0 W/m2 CLR
04:53 19.3 °C 17.4 °C 1011.7 hPa WSW 11.1 km/h 11.1 km/h 89 % 0.0 mm 0.0 W/m2 CLR
04:58 19.6 °C 17.7 °C 1011.7 hPa WSW 13.0 km/h 13.0 km/h 89 % 0.0 mm 0.0 W/m2 CLR
05:03 19.7 °C 17.8 °C 1011.7 hPa WSW 13.0 km/h 13.0 km/h 89 % 0.0 mm 0.0 W/m2 CLR
05:08 19.7 °C 17.8 °C 1011.7 hPa WSW 13.0 km/h 13.0 km/h 89 % 0.0 mm 0.0 W/m2 CLR
05:13 19.8 °C 17.7 °C 1011.7 hPa West 11.1 km/h 11.1 km/h 88 % 0.0 mm 0.0 W/m2 CLR
05:18 19.8 °C 17.7 °C 1011.7 hPa WSW 8.0 km/h 8.0 km/h 88 % 0.0 mm 0.0 W/m2 CLR
05:23 19.7 °C 17.7 °C 1012.1 hPa WSW 9.3 km/h 9.3 km/h 88 % 0.0 mm 0.0 W/m2 CLR
05:28 19.7 °C 17.8 °C 1012.1 hPa WSW 13.0 km/h 13.0 km/h 89 % 0.0 mm 0.0 W/m2 CLR
05:29 19.7 °C 17.8 °C 1012.1 hPa WSW 13.0 km/h 13.0 km/h 89 % 0.0 mm 0.0 W/m2 CLR
05:34 19.7 °C 17.8 °C 1012.1 hPa West 14.8 km/h 14.8 km/h 89 % 0.0 mm 0.0 W/m2 CLR
05:39 19.8 °C 17.9 °C 1012.1 hPa WSW 14.5 km/h 14.5 km/h 89 % 0.0 mm 0.0 W/m2 CLR
05:44 19.8 °C 17.8 °C 1012.1 hPa WSW 16.7 km/h 16.7 km/h 88 % 0.0 mm 0.0 W/m2 CLR
05:49 19.8 °C 17.7 °C 1012.4 hPa WSW 14.8 km/h 14.8 km/h 88 % 0.0 mm 0.0 W/m2 CLR
05:54 19.8 °C 17.7 °C 1012.4 hPa WSW 11.1 km/h 11.1 km/h 88 % 0.0 mm 0.0 W/m2 CLR
05:59 19.8 °C 17.8 °C 1012.4 hPa WSW 9.3 km/h 9.3 km/h 88 % 0.0 mm 0.0 W/m2 CLR
06:04 19.9 °C 17.8 °C 1012.4 hPa Calm   4.2 km/h 88 % 0.0 mm 0.0 W/m2 CLR
06:09 19.9 °C 17.9 °C 1012.4 hPa WSW 8.0 km/h 8.0 km/h 88 % 0.0 mm 0.0 W/m2 CLR
06:14 19.9 °C 17.9 °C 1012.4 hPa Calm     88 % 0.0 mm 0.0 W/m2 CLR
06:19 20.0 °C 17.9 °C 1012.8 hPa Calm     88 % 0.0 mm 0.0 W/m2 CLR
06:24 20.0 °C 17.9 °C 1012.8 hPa WSW 5.6 km/h 5.6 km/h 88 % 0.0 mm 0.0 W/m2 CLR
06:29 20.0 °C 17.9 °C 1012.8 hPa West 13.0 km/h 13.0 km/h 88 % 0.0 mm 0.0 W/m2 CLR
06:34 20.1 °C 17.8 °C 1012.8 hPa WSW 7.4 km/h 7.4 km/h 87 % 0.0 mm 0.0 W/m2 CLR
06:39 20.1 °C 17.8 °C 1012.8 hPa SW 5.6 km/h 5.6 km/h 87 % 0.0 mm 0.0 W/m2 OVC
06:44 20.1 °C 17.8 °C 1012.8 hPa WSW 13.0 km/h 13.0 km/h 87 % 0.0 mm 0.0 W/m2 OVC
06:49 20.0 °C 17.6 °C 1012.8 hPa WSW 7.4 km/h 7.4 km/h 86 % 0.0 mm 5.0 W/m2 OVC
06:54 19.9 °C 17.5 °C 1012.8 hPa WSW 5.6 km/h 5.6 km/h 86 % 0.0 mm 9.0 W/m2 BKN
06:59 19.8 °C 17.4 °C 1012.8 hPa West 5.6 km/h 5.6 km/h 86 % 0.0 mm 16.0 W/m2 BKN
07:04 19.8 °C 17.4 °C 1012.8 hPa Calm     86 % 0.0 mm 21.0 W/m2 BKN
07:09 19.7 °C 17.3 °C 1012.8 hPa Calm     86 % 0.0 mm 25.0 W/m2 BKN
07:14 19.7 °C 17.3 °C 1013.1 hPa Calm     86 % 0.0 mm 28.0 W/m2 BKN
07:19 19.6 °C 17.2 °C 1013.1 hPa Calm     86 % 0.0 mm 21.0 W/m2 BKN
07:24 19.6 °C 17.2 °C 1013.1 hPa Calm     86 % 0.0 mm 26.0 W/m2 BKN
07:29 19.6 °C 17.2 °C 1013.1 hPa Calm     86 % 0.0 mm 30.0 W/m2 BKN
07:34 19.6 °C 17.2 °C 1013.1 hPa Calm     86 % 0.0 mm 32.0 W/m2 BKN
07:39 19.5 °C 17.1 °C 1013.1 hPa Calm     86 % 0.0 mm 40.0 W/m2 BKN
07:44 19.6 °C 17.2 °C 1013.1 hPa Calm     86 % 0.0 mm 58.0 W/m2 SCT
07:49 19.6 °C 17.2 °C 1013.1 hPa Calm     86 % 0.0 mm 102.0 W/m2 SCT
07:54 19.6 °C 17.2 °C 1013.4 hPa Calm     86 % 0.0 mm 121.0 W/m2 FEW
07:59 19.7 °C 17.1 °C 1013.4 hPa Calm     85 % 0.0 mm 137.0 W/m2 CLR
08:04 19.9 °C 17.3 °C 1013.4 hPa Calm     85 % 0.0 mm 137.0 W/m2 CLR
08:09 20.1 °C 17.1 °C 1013.4 hPa Calm     83 % 0.0 mm 169.0 W/m2 CLR
08:14 20.4 °C 17.4 °C 1013.4 hPa Calm     83 % 0.0 mm 165.0 W/m2 CLR
08:19 20.6 °C 17.2 °C 1013.4 hPa Calm     81 % 0.0 mm 104.0 W/m2 CLR
08:24 20.8 °C 17.4 °C 1013.4 hPa Calm     81 % 0.0 mm 199.0 W/m2 CLR
08:29 21.1 °C 17.7 °C 1013.8 hPa Calm     81 % 0.0 mm 216.0 W/m2 CLR
08:34 21.3 °C 17.7 °C 1013.4 hPa Calm     80 % 0.0 mm 234.0 W/m2 CLR
08:39 21.5 °C 17.5 °C 1013.4 hPa Calm     78 % 0.0 mm 248.0 W/m2 CLR
08:44 21.6 °C 17.8 °C 1013.8 hPa Calm     79 % 0.0 mm 262.0 W/m2 CLR
08:49 21.8 °C 17.8 °C 1013.8 hPa Calm   0.2 km/h 78 % 0.0 mm 283.0 W/m2 CLR
08:54 21.9 °C 17.7 °C 1013.8 hPa Calm     77 % 0.0 mm 299.0 W/m2 CLR
08:59 22.1 °C 17.9 °C 1013.8 hPa Calm     77 % 0.0 mm 311.0 W/m2 CLR
09:04 22.4 °C 17.9 °C 1013.8 hPa Calm     76 % 0.0 mm 332.0 W/m2 CLR
09:09 22.4 °C 17.8 °C 1013.8 hPa Calm     75 % 0.0 mm 353.0 W/m2 CLR
09:14 22.4 °C 17.8 °C 1013.8 hPa Calm     75 % 0.0 mm 374.0 W/m2 CLR
09:19 22.6 °C 17.9 °C 1013.8 hPa Calm     75 % 0.0 mm 394.0 W/m2 CLR
09:24 22.8 °C 18.2 °C 1013.8 hPa Calm     75 % 0.0 mm 415.0 W/m2 CLR
09:29 23.1 °C 17.9 °C 1013.8 hPa Calm     73 % 0.0 mm 439.0 W/m2 CLR
09:34 23.2 °C 17.9 °C 1013.8 hPa Calm     72 % 0.0 mm 466.0 W/m2 CLR
09:39 23.5 °C 18.4 °C 1013.8 hPa Calm     73 % 0.0 mm 497.0 W/m2 CLR
09:44 23.7 °C 18.1 °C 1013.8 hPa Calm     71 % 0.0 mm 513.0 W/m2 CLR
09:49 23.9 °C 18.3 °C 1013.8 hPa Calm     71 % 0.0 mm 536.0 W/m2 CLR
09:54 24.2 °C 18.6 °C 1013.8 hPa Calm     71 % 0.0 mm 543.0 W/m2 CLR
09:59 24.4 °C 18.6 °C 1013.8 hPa Calm     70 % 0.0 mm 563.0 W/m2 CLR
10:04 24.6 °C 18.6 °C 1013.8 hPa NNW 1.9 km/h   69 % 0.0 mm 578.0 W/m2 CLR
10:09 24.6 °C 18.5 °C 1013.8 hPa Calm     69 % 0.0 mm 615.0 W/m2 CLR
10:14 24.7 °C 18.6 °C 1013.8 hPa Calm     69 % 0.0 mm 575.0 W/m2 CLR
10:19 25.1 °C 18.6 °C 1013.8 hPa NNE 1.9 km/h   67 % 0.0 mm 599.0 W/m2 CLR
10:24 25.3 °C 18.9 °C 1013.8 hPa NE 1.9 km/h 1.9 km/h 68 % 0.0 mm 490.0 W/m2 CLR
10:29 25.4 °C 18.9 °C 1013.8 hPa ENE 5.6 km/h 5.6 km/h 67 % 0.0 mm 638.0 W/m2 CLR
10:34 25.6 °C 18.8 °C 1013.8 hPa ENE 1.9 km/h 1.9 km/h 66 % 0.0 mm 471.0 W/m2 CLR
10:39 25.3 °C 18.5 °C 1013.8 hPa Calm     66 % 0.0 mm 798.0 W/m2 CLR
10:44 25.2 °C 18.6 °C 1013.4 hPa ENE 9.3 km/h 9.3 km/h 67 % 0.0 mm 733.0 W/m2 CLR
10:49 25.1 °C 18.8 °C 1013.8 hPa NNE 1.9 km/h   68 % 0.0 mm 677.0 W/m2 CLR
10:55 25.3 °C 18.7 °C 1013.4 hPa ENE 3.7 km/h   67 % 0.0 mm 374.0 W/m2 CLR
11:00 25.5 °C 18.9 °C 1013.4 hPa NE 5.6 km/h   67 % 0.0 mm 715.0 W/m2 CLR
11:05 25.8 °C 18.8 °C 1013.4 hPa NNE 1.9 km/h   65 % 0.0 mm 411.0 W/m2 CLR
11:10 25.8 °C 18.7 °C 1013.4 hPa NE 9.3 km/h 9.3 km/h 65 % 0.0 mm 264.0 W/m2 CLR
11:15 25.6 °C 18.5 °C 1013.8 hPa Calm     65 % 0.0 mm 221.0 W/m2 CLR
11:20 25.4 °C 18.6 °C 1013.8 hPa Calm     66 % 0.0 mm 234.0 W/m2 CLR
11:25 25.3 °C 19.0 °C 1013.4 hPa NE 4.8 km/h 4.8 km/h 68 % 0.0 mm 329.0 W/m2 CLR
11:30 25.6 °C 18.8 °C 1013.4 hPa ENE 3.7 km/h   66 % 0.0 mm 809.0 W/m2 CLR
11:35 25.6 °C 18.8 °C 1013.8 hPa East 3.7 km/h   66 % 0.0 mm 371.0 W/m2 CLR
11:40 25.6 °C 18.8 °C 1013.8 hPa NE 11.3 km/h 11.3 km/h 66 % 0.0 mm 239.0 W/m2 CLR
11:45 25.7 °C 19.1 °C 1013.8 hPa ENE 13.0 km/h 13.0 km/h 67 % 0.0 mm 788.0 W/m2 CLR
11:50 26.1 °C 18.9 °C 1013.8 hPa NE 9.3 km/h 9.3 km/h 65 % 0.0 mm 775.0 W/m2 CLR
11:55 26.3 °C 18.7 °C 1013.8 hPa NE 7.4 km/h 7.4 km/h 63 % 0.0 mm 779.0 W/m2 CLR
12:00 26.6 °C 18.9 °C 1013.8 hPa ENE 14.8 km/h 14.8 km/h 63 % 0.0 mm 789.0 W/m2 CLR
12:05 26.8 °C 19.2 °C 1013.4 hPa NNE 9.3 km/h 9.3 km/h 63 % 0.0 mm 789.0 W/m2 CLR
12:10 26.9 °C 19.1 °C 1013.4 hPa NNE 9.3 km/h   62 % 0.0 mm 805.0 W/m2 CLR
12:15 27.2 °C 18.7 °C 1013.4 hPa East 14.8 km/h 14.8 km/h 60 % 0.0 mm 812.0 W/m2 CLR
12:20 27.2 °C 19.1 °C 1013.4 hPa East 13.0 km/h 13.0 km/h 61 % 0.0 mm 816.0 W/m2 CLR
12:25 27.3 °C 18.9 °C 1013.4 hPa ESE 14.8 km/h 14.8 km/h 60 % 0.0 mm 821.0 W/m2 CLR
12:30 27.7 °C 19.2 °C 1013.4 hPa East 7.4 km/h 7.4 km/h 60 % 0.0 mm 826.0 W/m2 CLR
12:35 27.8 °C 19.1 °C 1013.4 hPa Calm     59 % 0.0 mm 831.0 W/m2 CLR
12:40 28.2 °C 19.4 °C 1013.4 hPa SE 9.7 km/h 9.7 km/h 59 % 0.0 mm 837.0 W/m2 CLR
12:45 28.2 °C 19.1 °C 1013.4 hPa ENE 7.4 km/h 7.4 km/h 58 % 0.0 mm 840.0 W/m2 CLR
12:50 28.3 °C 19.8 °C 1013.1 hPa ENE 5.6 km/h 5.6 km/h 60 % 0.0 mm 847.0 W/m2 CLR
12:55 28.7 °C 19.7 °C 1013.1 hPa ESE 13.0 km/h 13.0 km/h 58 % 0.0 mm 854.0 W/m2 CLR
13:00 28.7 °C 19.3 °C 1013.1 hPa SE 7.4 km/h 7.4 km/h 57 % 0.0 mm 863.0 W/m2 CLR
13:05 28.9 °C 19.8 °C 1013.1 hPa East 8.0 km/h 8.0 km/h 58 % 0.0 mm 867.0 W/m2 CLR
13:10 28.9 °C 19.8 °C 1013.1 hPa ENE 14.5 km/h 14.5 km/h 58 % 0.0 mm 867.0 W/m2 CLR
13:15 28.9 °C 20.1 °C 1012.8 hPa SE 11.1 km/h 11.1 km/h 59 % 0.0 mm 877.0 W/m2 CLR
13:20 29.1 °C 20.0 °C 1012.8 hPa East 5.6 km/h 5.6 km/h 58 % 0.0 mm 882.0 W/m2 CLR
13:25 29.3 °C 19.7 °C 1012.8 hPa ENE 5.6 km/h 5.6 km/h 56 % 0.0 mm 879.0 W/m2 CLR
13:30 29.6 °C 20.2 °C 1012.4 hPa ENE 9.3 km/h 9.3 km/h 57 % 0.0 mm 886.0 W/m2 CLR
13:35 29.9 °C 20.2 °C 1012.4 hPa SE 8.0 km/h 8.0 km/h 56 % 0.0 mm 911.0 W/m2 CLR
13:40 30.2 °C 20.1 °C 1012.4 hPa ESE 13.0 km/h 13.0 km/h 55 % 0.0 mm 905.0 W/m2 CLR
13:45 30.1 °C 20.0 °C 1012.4 hPa SE 7.4 km/h 7.4 km/h 55 % 0.0 mm 905.0 W/m2 CLR
13:50 30.2 °C 20.2 °C 1012.4 hPa ENE 9.3 km/h 9.3 km/h 55 % 0.0 mm 916.0 W/m2 CLR
13:55 30.6 °C 20.2 °C 1012.4 hPa ESE 5.6 km/h 5.6 km/h 54 % 0.0 mm 933.0 W/m2 CLR
14:00 30.8 °C 19.8 °C 1012.1 hPa ESE 17.7 km/h 17.7 km/h 52 % 0.0 mm 926.0 W/m2 CLR
14:05 30.9 °C 20.6 °C 1012.1 hPa ENE 4.8 km/h 4.8 km/h 54 % 0.0 mm 958.0 W/m2 CLR
14:10 31.1 °C 19.7 °C 1012.1 hPa ESE 16.7 km/h 16.7 km/h 51 % 0.0 mm 958.0 W/m2 CLR
14:15 30.8 °C 19.8 °C 1012.1 hPa SSW 1.9 km/h   52 % 0.0 mm 302.0 W/m2 CLR
14:20 30.8 °C 19.8 °C 1011.7 hPa NE 14.8 km/h 14.8 km/h 52 % 0.0 mm 299.0 W/m2 CLR
14:25 30.6 °C 19.6 °C 1012.1 hPa ENE 18.5 km/h 18.5 km/h 52 % 0.0 mm 250.0 W/m2 CLR
14:30 30.5 °C 19.8 °C 1011.7 hPa ESE 18.5 km/h 18.5 km/h 53 % 0.0 mm 385.0 W/m2 CLR
14:35 30.6 °C 19.9 °C 1011.7 hPa ESE 22.5 km/h 22.5 km/h 53 % 0.0 mm 1046.0 W/m2 CLR
14:40 30.9 °C 20.2 °C 1011.7 hPa ESE 24.1 km/h 24.1 km/h 53 % 0.0 mm 997.0 W/m2 CLR
14:46 30.6 °C 19.9 °C 1011.7 hPa ESE 25.9 km/h 25.9 km/h 53 % 0.0 mm 295.0 W/m2 CLR
14:51 30.3 °C 20.0 °C 1011.4 hPa ENE 24.1 km/h 24.1 km/h 54 % 0.0 mm 322.0 W/m2 CLR
14:56 30.2 °C 20.2 °C 1011.4 hPa ESE 24.1 km/h 24.1 km/h 55 % 0.0 mm 327.0 W/m2 CLR
15:01 30.2 °C 20.1 °C 1011.4 hPa East 9.3 km/h 9.3 km/h 55 % 0.0 mm 297.0 W/m2 CLR
15:06 30.4 °C 20.1 °C 1011.4 hPa ESE 14.8 km/h 14.8 km/h 54 % 0.0 mm 332.0 W/m2 CLR
15:11 30.4 °C 19.8 °C 1011.4 hPa East 18.5 km/h 18.5 km/h 53 % 0.0 mm 258.0 W/m2 CLR
15:16 30.4 °C 19.7 °C 1011.4 hPa East 33.3 km/h 33.3 km/h 53 % 0.0 mm 202.0 W/m2 CLR
15:21 30.4 °C 19.4 °C 1011.4 hPa SE 7.4 km/h 7.4 km/h 52 % 0.0 mm 202.0 W/m2 CLR
15:26 30.5 °C 19.6 °C 1011.1 hPa ESE 25.9 km/h 25.9 km/h 52 % 0.0 mm 178.0 W/m2 CLR
15:31 30.2 °C 19.8 °C 1011.1 hPa SSE 31.5 km/h 31.5 km/h 54 % 0.0 mm 114.0 W/m2 CLR
15:36 29.8 °C 20.1 °C 1011.1 hPa East 29.6 km/h 29.6 km/h 56 % 0.0 mm 165.0 W/m2 CLR
15:41 29.7 °C 20.2 °C 1011.1 hPa ESE 31.5 km/h 31.5 km/h 57 % 0.0 mm 125.0 W/m2 CLR
15:46 29.4 °C 20.3 °C 1011.1 hPa ESE 25.9 km/h 25.9 km/h 58 % 0.0 mm 153.0 W/m2 CLR
15:51 29.3 °C 20.2 °C 1010.7 hPa ESE 24.1 km/h 24.1 km/h 58 % 0.0 mm 258.0 W/m2 CLR
15:56 29.3 °C 20.2 °C 1011.1 hPa ESE 22.2 km/h 22.2 km/h 58 % 0.0 mm 69.0 W/m2 CLR
16:01 29.2 °C 20.1 °C 1011.4 hPa ESE 19.3 km/h 19.3 km/h 58 % 0.0 mm 46.0 W/m2 FEW
16:06 28.9 °C 20.9 °C 1011.4 hPa ESE 19.3 km/h 19.3 km/h 62 % 0.3 mm 47.0 W/m2 RA
16:11 28.1 °C 21.4 °C 1011.7 hPa East 11.1 km/h 11.1 km/h 67 % 0.5 mm 56.0 W/m2 RA
16:16 27.4 °C 21.2 °C 1011.7 hPa Calm     69 % 0.8 mm 76.0 W/m2 RA
16:21 26.8 °C 21.1 °C 1011.7 hPa Calm     71 % 0.8 mm 77.0 W/m2 FEW
16:26 26.6 °C 21.6 °C 1011.4 hPa ESE 5.6 km/h 5.6 km/h 74 % 1.3 mm 163.0 W/m2 RA
16:31 26.3 °C 21.3 °C 1011.4 hPa ESE 14.8 km/h 14.8 km/h 74 % 1.3 mm 241.0 W/m2 CLR
16:36 26.4 °C 21.7 °C 1011.4 hPa East 11.1 km/h 11.1 km/h 75 % 1.3 mm 728.0 W/m2 CLR
16:41 26.7 °C 21.5 °C 1011.1 hPa SE 18.5 km/h 18.5 km/h 73 % 1.3 mm 214.0 W/m2 CLR
16:46 26.9 °C 21.7 °C 1011.4 hPa South 19.3 km/h 19.3 km/h 73 % 1.3 mm 744.0 W/m2 CLR
16:51 27.2 °C 21.5 °C 1011.4 hPa SE 24.1 km/h 24.1 km/h 71 % 1.3 mm 773.0 W/m2 CLR
16:56 27.4 °C 21.7 °C 1011.4 hPa SE 18.5 km/h 18.5 km/h 71 % 1.3 mm 740.0 W/m2 CLR
17:01 27.4 °C 21.4 °C 1011.4 hPa SE 27.8 km/h 27.8 km/h 70 % 1.3 mm 698.0 W/m2 CLR
17:06 27.7 °C 21.9 °C 1011.4 hPa SE 14.8 km/h 14.8 km/h 71 % 1.0 mm 675.0 W/m2 CLR
17:11 27.8 °C 21.6 °C 1011.1 hPa SE 20.4 km/h 20.4 km/h 69 % 0.8 mm 661.0 W/m2 CLR
17:16 27.9 °C 21.5 °C 1011.1 hPa SE 20.9 km/h 20.9 km/h 68 % 0.5 mm 638.0 W/m2 CLR
17:21 28.0 °C 21.6 °C 1011.1 hPa ESE 33.3 km/h 33.3 km/h 68 % 0.5 mm 622.0 W/m2 CLR
17:26 28.0 °C 21.6 °C 1011.1 hPa ESE 20.4 km/h 20.4 km/h 68 % 0.0 mm 621.0 W/m2 CLR
17:31 28.1 °C 21.7 °C 1011.1 hPa ESE 24.1 km/h 24.1 km/h 68 % 0.0 mm 621.0 W/m2 CLR
17:36 28.2 °C 21.7 °C 1010.7 hPa ESE 20.4 km/h 20.4 km/h 68 % 0.0 mm 617.0 W/m2 CLR
17:41 28.3 °C 22.1 °C 1010.7 hPa SSE 14.8 km/h 14.8 km/h 69 % 0.0 mm 578.0 W/m2 CLR
17:46 28.4 °C 21.9 °C 1010.7 hPa ESE 18.5 km/h 18.5 km/h 68 % 0.0 mm 643.0 W/m2 CLR
17:51 28.8 °C 22.5 °C 1010.7 hPa ESE 13.0 km/h 13.0 km/h 69 % 0.0 mm 603.0 W/m2 CLR
17:56 28.8 °C 22.3 °C 1011.1 hPa ENE 13.0 km/h 13.0 km/h 68 % 0.0 mm 155.0 W/m2 CLR
18:01 28.8 °C 22.5 °C 1011.4 hPa Calm     69 % 0.0 mm 241.0 W/m2 CLR
18:06 29.1 °C 22.6 °C 1011.1 hPa East 22.5 km/h 22.5 km/h 68 % 0.0 mm 570.0 W/m2 CLR
18:11 29.0 °C 22.5 °C 1011.1 hPa East 18.5 km/h 18.5 km/h 68 % 0.0 mm 469.0 W/m2 CLR
18:16 29.0 °C 21.8 °C 1010.7 hPa SE 20.4 km/h 20.4 km/h 65 % 0.0 mm 482.0 W/m2 CLR
18:21 28.8 °C 21.3 °C 1010.7 hPa ESE 24.1 km/h 24.1 km/h 64 % 0.0 mm 466.0 W/m2 CLR
18:26 28.8 °C 21.3 °C 1011.1 hPa ESE 24.1 km/h 24.1 km/h 64 % 0.0 mm 445.0 W/m2 CLR
18:31 28.9 °C 21.4 °C 1010.7 hPa ESE 18.5 km/h 18.5 km/h 64 % 0.0 mm 431.0 W/m2 CLR
18:36 28.8 °C 21.3 °C 1011.1 hPa ESE 22.2 km/h 22.2 km/h 64 % 0.0 mm 338.0 W/m2 CLR
18:41 28.7 °C 21.7 °C 1011.1 hPa ESE 17.7 km/h 17.7 km/h 66 % 0.0 mm 362.0 W/m2 CLR
18:46 28.7 °C 21.4 °C 1011.1 hPa SE 24.1 km/h 24.1 km/h 65 % 0.0 mm 380.0 W/m2 CLR
18:51 28.6 °C 21.4 °C 1011.1 hPa SE 22.2 km/h 22.2 km/h 65 % 0.0 mm 353.0 W/m2 CLR
18:56 28.8 °C 21.6 °C 1011.1 hPa ESE 17.7 km/h 17.7 km/h 65 % 0.0 mm 338.0 W/m2 CLR
19:01 29.0 °C 21.5 °C 1011.1 hPa SSE 16.7 km/h 16.7 km/h 64 % 0.0 mm 283.0 W/m2 CLR
19:06 29.1 °C 21.3 °C 1011.1 hPa SE 18.5 km/h 18.5 km/h 63 % 0.0 mm 315.0 W/m2 CLR
19:11 29.2 °C 21.4 °C 1011.1 hPa SE 18.5 km/h 18.5 km/h 63 % 0.0 mm 297.0 W/m2 CLR
19:16 29.2 °C 21.4 °C 1011.1 hPa SE 16.7 km/h 16.7 km/h 63 % 0.0 mm 276.0 W/m2 CLR
19:21 29.1 °C 21.3 °C 1011.1 hPa SE 20.4 km/h 20.4 km/h 63 % 0.0 mm 265.0 W/m2 CLR
19:26 28.7 °C 21.2 °C 1011.1 hPa SE 18.5 km/h 18.5 km/h 64 % 0.0 mm 250.0 W/m2 CLR
19:31 28.7 °C 21.2 °C 1011.1 hPa SSE 25.9 km/h 25.9 km/h 64 % 0.0 mm 239.0 W/m2 CLR
19:36 28.7 °C 21.2 °C 1011.1 hPa SE 18.5 km/h 18.5 km/h 64 % 0.0 mm 225.0 W/m2 CLR
19:41 28.8 °C 21.3 °C 1011.1 hPa SSE 13.0 km/h 13.0 km/h 64 % 0.0 mm 214.0 W/m2 CLR
19:46 28.8 °C 21.3 °C 1011.1 hPa SE 16.7 km/h 16.7 km/h 64 % 0.0 mm 197.0 W/m2 CLR
19:51 28.8 °C 21.3 °C 1011.4 hPa SE 9.3 km/h 9.3 km/h 64 % 0.0 mm 174.0 W/m2 CLR
19:56 28.8 °C 21.3 °C 1011.4 hPa SE 14.5 km/h 14.5 km/h 64 % 0.0 mm 158.0 W/m2 CLR
20:01 28.7 °C 21.0 °C 1011.4 hPa SE 18.5 km/h 18.5 km/h 63 % 0.0 mm 142.0 W/m2 CLR
20:06 28.6 °C 20.9 °C 1011.4 hPa ESE 18.5 km/h 18.5 km/h 63 % 0.0 mm 127.0 W/m2 CLR
20:11 28.5 °C 21.0 °C 1011.4 hPa SE 13.0 km/h 13.0 km/h 64 % 0.0 mm 111.0 W/m2 CLR
20:16 28.4 °C 21.0 °C 1011.4 hPa ESE 14.5 km/h 14.5 km/h 64 % 0.0 mm 98.0 W/m2 CLR
20:21 28.4 °C 20.9 °C 1011.4 hPa ESE 16.1 km/h 16.1 km/h 64 % 0.0 mm 88.0 W/m2 CLR
20:26 28.3 °C 20.9 °C 1011.7 hPa SE 17.7 km/h 17.7 km/h 64 % 0.0 mm 77.0 W/m2 FEW
20:31 28.3 °C 20.8 °C 1011.7 hPa SE 13.0 km/h 13.0 km/h 64 % 0.0 mm 67.0 W/m2 FEW
20:36 28.2 °C 21.0 °C 1011.7 hPa SSE 14.8 km/h 14.8 km/h 65 % 0.0 mm 56.0 W/m2 SCT
20:41 28.1 °C 20.9 °C 1011.7 hPa SSE 5.6 km/h 5.6 km/h 65 % 0.0 mm 47.0 W/m2 SCT
20:46 28.0 °C 20.8 °C 1011.7 hPa SE 11.1 km/h 11.1 km/h 65 % 0.0 mm 40.0 W/m2 BKN
20:51 27.9 °C 21.0 °C 1012.1 hPa Calm     66 % 0.0 mm 35.0 W/m2 BKN
20:57 27.9 °C 20.9 °C 1012.1 hPa Calm     66 % 0.0 mm 26.0 W/m2 BKN
21:02 27.8 °C 20.9 °C 1012.1 hPa SE 1.9 km/h   66 % 0.0 mm 21.0 W/m2 BKN
21:07 27.7 °C 21.0 °C 1012.1 hPa Calm     67 % 0.0 mm 18.0 W/m2 BKN
21:12 27.6 °C 21.2 °C 1012.1 hPa ESE 5.6 km/h   68 % 0.0 mm 14.0 W/m2 BKN
21:17 27.4 °C 21.2 °C 1012.1 hPa Calm     69 % 0.0 mm 9.0 W/m2 BKN
21:22 27.3 °C 21.1 °C 1012.4 hPa SE 3.2 km/h 3.2 km/h 69 % 0.0 mm 5.0 W/m2 BKN
21:27 27.1 °C 21.2 °C 1012.4 hPa Calm     70 % 0.0 mm 0.0 W/m2 OVC
21:32 27.0 °C 21.3 °C 1012.4 hPa Calm     71 % 0.0 mm 0.0 W/m2 OVC
21:37 26.8 °C 21.3 °C 1012.8 hPa East 3.2 km/h 3.2 km/h 72 % 0.0 mm 0.0 W/m2 CLR
21:42 26.4 °C 21.2 °C 1012.8 hPa SE 4.8 km/h 4.8 km/h 73 % 0.0 mm 0.0 W/m2 CLR
21:47 26.3 °C 21.3 °C 1013.1 hPa SE 9.3 km/h 9.3 km/h 74 % 0.0 mm 0.0 W/m2 CLR
21:52 26.1 °C 21.3 °C 1013.1 hPa SE 5.6 km/h 5.6 km/h 75 % 0.0 mm 0.0 W/m2 CLR
21:57 26.0 °C 21.2 °C 1013.1 hPa SE 9.3 km/h 9.3 km/h 75 % 0.0 mm 0.0 W/m2 CLR
22:02 25.9 °C 21.2 °C 1013.1 hPa SE 3.7 km/h   75 % 0.0 mm 0.0 W/m2 CLR
22:07 25.8 °C 21.3 °C 1013.1 hPa ESE 9.7 km/h 9.7 km/h 76 % 0.0 mm 0.0 W/m2 CLR
22:12 25.7 °C 21.1 °C 1013.1 hPa ESE 7.4 km/h 7.4 km/h 76 % 0.0 mm 0.0 W/m2 CLR
22:17 25.5 °C 21.2 °C 1013.4 hPa Calm     77 % 0.0 mm 0.0 W/m2 CLR
22:22 25.3 °C 21.2 °C 1013.4 hPa ESE 9.3 km/h 9.3 km/h 78 % 0.0 mm 0.0 W/m2 CLR
22:27 25.2 °C 21.1 °C 1013.4 hPa Calm     78 % 0.0 mm 0.0 W/m2 CLR
22:32 25.1 °C 21.2 °C 1013.4 hPa Calm     79 % 0.0 mm 0.0 W/m2 CLR
22:37 25.1 °C 21.2 °C 1013.8 hPa Calm     79 % 0.0 mm 0.0 W/m2 CLR
22:42 25.0 °C 21.1 °C 1013.8 hPa Calm     79 % 0.0 mm 0.0 W/m2 CLR
22:47 24.9 °C 21.1 °C 1013.8 hPa Calm     79 % 0.0 mm 0.0 W/m2 CLR
22:52 24.8 °C 20.9 °C 1013.8 hPa Calm     79 % 0.0 mm 0.0 W/m2 CLR
22:57 24.8 °C 21.1 °C 1013.8 hPa Calm     80 % 0.0 mm 0.0 W/m2 CLR
23:02 24.7 °C 21.1 °C 1013.8 hPa Calm     80 % 0.0 mm 0.0 W/m2 CLR
23:07 24.6 °C 20.9 °C 1013.8 hPa Calm     80 % 0.0 mm 0.0 W/m2 CLR
23:12 24.6 °C 20.7 °C 1014.1 hPa Calm     79 % 0.0 mm 0.0 W/m2 CLR
23:17 24.7 °C 20.8 °C 1014.1 hPa Calm     79 % 0.0 mm 0.0 W/m2 CLR
23:22 24.7 °C 20.6 °C 1014.1 hPa Calm     78 % 0.0 mm 0.0 W/m2 CLR
23:27 24.8 °C 20.4 °C 1014.1 hPa Calm     77 % 0.0 mm 0.0 W/m2 CLR
23:32 24.8 °C 20.5 °C 1014.1 hPa Calm     77 % 0.0 mm 0.0 W/m2 CLR
23:37 24.8 °C 20.4 °C 1014.1 hPa Calm     77 % 0.0 mm 0.0 W/m2 CLR
23:42 24.7 °C 20.4 °C 1014.1 hPa Calm     77 % 0.0 mm 0.0 W/m2 CLR
23:47 24.7 °C 20.4 °C 1014.1 hPa Calm     77 % 0.0 mm 0.0 W/m2 CLR
23:52 24.7 °C 20.4 °C 1014.1 hPa Calm     77 % 0.0 mm 0.0 W/m2 CLR
23:57 24.7 °C 20.4 °C 1014.1 hPa Calm     77 % 0.0 mm 0.0 W/m2 CLR
Lo Temps de Massalio
Compliments of Weather Underground - 1.25 mb